Time;durP1;ratioP1;P1;durP2;ratioP2;P2;SDS_P1;SDS_P2;PMS_P1;PMS_P2;Temp;Humidity;BMP_temperature;BMP_pressure;BME280_temperature;BME280_humidity;BME280_pressure;Samples;Min_cycle;Max_cycle;Signal;HPM_P1;HPM_P2
2023/09/29 00:01:59;;;;;;;4.03;1.80;;;21.30;68.30;;;;;;5073544;28;20201;-62
2023/09/29 00:04:27;;;;;;;3.35;1.73;;;21.40;68.40;;;;;;5073762;28;20223;-62
2023/09/29 00:06:55;;;;;;;2.83;1.60;;;21.30;68.40;;;;;;5073306;28;20684;-61
2023/09/29 00:09:23;;;;;;;3.05;2.00;;;21.30;68.30;;;;;;5073808;28;20183;-62
2023/09/29 00:11:52;;;;;;;4.00;1.70;;;21.30;68.40;;;;;;5072972;28;20267;-63
2023/09/29 00:14:20;;;;;;;7.45;2.08;;;21.30;68.30;;;;;;5074135;28;20323;-63
2023/09/29 00:16:47;;;;;;;4.05;2.00;;;21.30;68.40;;;;;;5073513;28;20191;-62
2023/09/29 00:19:15;;;;;;;4.45;1.65;;;21.30;68.40;;;;;;5073261;28;20199;-62
2023/09/29 00:21:42;;;;;;;4.60;1.70;;;21.30;68.40;;;;;;5074110;28;20191;-62
2023/09/29 00:24:10;;;;;;;4.60;1.83;;;21.30;68.40;;;;;;5073961;28;20195;-62
2023/09/29 00:26:38;;;;;;;2.78;1.55;;;21.30;68.50;;;;;;5073708;28;20198;-63
2023/09/29 00:29:07;;;;;;;3.10;1.65;;;21.30;68.50;;;;;;5073923;28;20218;-61
2023/09/29 00:31:35;;;;;;;2.17;1.42;;;21.30;68.60;;;;;;5073592;28;20248;-60
2023/09/29 00:34:03;;;;;;;2.53;1.67;;;21.30;68.60;;;;;;5073247;28;20274;-60
2023/09/29 00:36:30;;;;;;;4.20;1.45;;;21.30;68.60;;;;;;5072998;28;20765;-62
2023/09/29 00:38:58;;;;;;;3.35;1.45;;;21.40;68.70;;;;;;5073532;28;20191;-63
2023/09/29 00:41:25;;;;;;;3.60;1.70;;;21.30;68.60;;;;;;5073238;28;20225;-62
2023/09/29 00:43:54;;;;;;;2.88;1.52;;;21.30;68.60;;;;;;5073716;28;20195;-59
2023/09/29 00:46:25;;;;;;;4.25;1.73;;;21.30;68.70;;;;;;5073135;28;20223;-61
2023/09/29 00:48:52;;;;;;;3.30;1.70;;;21.30;68.70;;;;;;5073191;28;20219;-62
2023/09/29 00:51:22;;;;;;;2.55;1.45;;;21.30;68.70;;;;;;5072525;28;20222;-58
2023/09/29 00:53:51;;;;;;;5.95;1.92;;;21.30;68.80;;;;;;5073315;28;20215;-63
2023/09/29 00:56:20;;;;;;;3.10;1.60;;;21.30;68.80;;;;;;5072639;28;20210;-63
2023/09/29 01:01:50;;;;;;;4.22;1.48;;;21.30;68.80;;;;;;5067893;28;20193;-58
2023/09/29 01:04:26;;;;;;;4.53;1.65;;;21.30;68.90;;;;;;5072670;28;20229;-63
2023/09/29 01:06:54;;;;;;;3.42;1.70;;;21.30;68.90;;;;;;5072960;28;20182;-58
2023/09/29 01:09:22;;;;;;;4.07;1.48;;;21.30;68.90;;;;;;5072733;28;20191;-63
2023/09/29 01:11:49;;;;;;;3.00;1.70;;;21.30;69.10;;;;;;5072596;28;20198;-61
2023/09/29 01:14:17;;;;;;;4.18;2.03;;;21.30;69.00;;;;;;5070865;28;20195;-63
2023/09/29 01:16:45;;;;;;;3.15;1.80;;;21.30;69.10;;;;;;5066970;28;20199;-62
2023/09/29 01:19:15;;;;;;;3.38;1.38;;;21.30;69.10;;;;;;5072192;28;20279;-63
2023/09/29 01:21:44;;;;;;;3.28;1.30;;;21.30;69.10;;;;;;5072838;28;20187;-62
2023/09/29 01:24:14;;;;;;;3.63;1.75;;;21.30;69.10;;;;;;5071928;28;20278;-58
2023/09/29 01:26:45;;;;;;;2.53;1.10;;;21.30;69.10;;;;;;5072326;28;20265;-59
2023/09/29 01:29:12;;;;;;;3.53;2.05;;;21.30;69.20;;;;;;5072262;28;20241;-58
2023/09/29 01:31:41;;;;;;;3.40;1.25;;;21.30;69.10;;;;;;5072526;28;20187;-61
2023/09/29 01:34:09;;;;;;;4.68;1.63;;;21.30;69.20;;;;;;5072511;28;20297;-61
2023/09/29 01:36:39;;;;;;;3.22;1.85;;;21.30;69.20;;;;;;5072512;28;20215;-61
2023/09/29 01:39:06;;;;;;;3.08;1.33;;;21.30;69.20;;;;;;5072583;28;20288;-63
2023/09/29 01:41:36;;;;;;;2.97;1.60;;;21.30;69.20;;;;;;5072370;28;20305;-61
2023/09/29 01:44:03;;;;;;;3.72;1.55;;;21.30;69.30;;;;;;5072333;28;20190;-63
2023/09/29 01:46:33;;;;;;;3.47;1.40;;;21.30;69.30;;;;;;5071666;28;20301;-60
2023/09/29 01:49:01;;;;;;;4.60;1.65;;;21.30;69.40;;;;;;5072156;28;20234;-62
2023/09/29 01:51:30;;;;;;;5.57;1.30;;;21.30;69.50;;;;;;5072175;28;20304;-61
2023/09/29 01:53:57;;;;;;;2.78;1.38;;;21.30;69.40;;;;;;5072287;28;20575;-63
2023/09/29 01:56:25;;;;;;;3.38;1.50;;;21.30;69.40;;;;;;5072075;28;20215;-61
2023/09/29 01:58:54;;;;;;;2.70;1.40;;;21.20;69.40;;;;;;5072340;28;20194;-59
2023/09/29 02:01:21;;;;;;;4.32;1.60;;;21.20;69.40;;;;;;5072147;28;20298;-59
2023/09/29 02:03:49;;;;;;;5.10;1.40;;;21.20;69.40;;;;;;5070771;28;20191;-58
2023/09/29 02:06:17;;;;;;;3.40;1.27;;;21.20;69.40;;;;;;5071579;28;20206;-61
2023/09/29 02:08:45;;;;;;;2.65;1.25;;;21.20;69.40;;;;;;5071624;28;20190;-61
2023/09/29 02:11:12;;;;;;;3.38;1.42;;;21.30;69.60;;;;;;5071802;28;20215;-59
2023/09/29 02:13:40;;;;;;;4.00;1.48;;;21.30;69.50;;;;;;5072235;28;20225;-61
2023/09/29 02:16:15;;;;;;;2.58;1.27;;;21.30;69.70;;;;;;5071910;28;20214;-59
2023/09/29 02:18:46;;;;;;;3.13;1.33;;;21.20;69.60;;;;;;5071691;28;20299;-61
2023/09/29 02:21:37;;;;;;;2.72;1.38;;;21.20;69.50;;;;;;5071735;28;20711;-63
2023/09/29 02:24:06;;;;;;;3.13;1.40;;;21.20;69.60;;;;;;5062908;28;20203;-60
2023/09/29 02:26:34;;;;;;;2.97;1.33;;;21.20;69.60;;;;;;5071607;28;20939;-61
2023/09/29 02:29:03;;;;;;;7.13;1.30;;;21.20;69.60;;;;;;5071641;28;20264;-61
2023/09/29 02:31:31;;;;;;;2.90;1.10;;;21.30;69.70;;;;;;5071816;28;20222;-61
2023/09/29 02:33:59;;;;;;;1.77;1.15;;;21.20;69.60;;;;;;5071870;28;20211;-62
2023/09/29 02:36:26;;;;;;;2.05;0.98;;;21.20;69.60;;;;;;5071762;28;20222;-62
2023/09/29 02:38:54;;;;;;;3.70;1.40;;;21.20;69.60;;;;;;5071489;28;20222;-63
2023/09/29 02:41:22;;;;;;;1.55;1.10;;;21.20;69.60;;;;;;5071536;28;20223;-62
2023/09/29 02:43:49;;;;;;;2.97;1.02;;;21.20;69.70;;;;;;5071787;28;20183;-62
2023/09/29 02:46:17;;;;;;;3.55;1.42;;;21.20;69.70;;;;;;5071463;28;20272;-63
2023/09/29 02:48:46;;;;;;;2.28;1.08;;;21.20;69.70;;;;;;5071450;28;20237;-58
2023/09/29 02:51:17;;;;;;;1.75;1.00;;;21.20;69.70;;;;;;5071707;28;20226;-62
2023/09/29 02:53:48;;;;;;;2.50;1.15;;;21.20;69.70;;;;;;5071401;28;20221;-63
2023/09/29 02:56:16;;;;;;;1.83;0.93;;;21.20;69.80;;;;;;5071441;28;20235;-61
2023/09/29 02:58:46;;;;;;;2.15;1.05;;;21.30;69.80;;;;;;5070211;28;20230;-59
2023/09/29 03:01:18;;;;;;;2.25;1.00;;;21.20;69.80;;;;;;5071081;28;20215;-59
2023/09/29 03:03:47;;;;;;;3.03;0.80;;;21.20;69.80;;;;;;5071607;28;20214;-60
2023/09/29 03:06:20;;;;;;;1.92;0.85;;;21.20;69.70;;;;;;5071402;28;20226;-60
2023/09/29 03:08:49;;;;;;;1.90;1.10;;;21.20;69.80;;;;;;5071340;28;20190;-62
2023/09/29 03:11:17;;;;;;;1.30;0.90;;;21.20;69.80;;;;;;5071536;28;20223;-62
2023/09/29 03:13:45;;;;;;;4.90;1.10;;;21.20;69.80;;;;;;5071408;28;20699;-60
2023/09/29 03:16:12;;;;;;;1.85;1.02;;;21.20;69.80;;;;;;5074772;28;20305;-60
2023/09/29 03:18:40;;;;;;;2.08;1.00;;;21.20;69.80;;;;;;5075342;28;20195;-63
2023/09/29 03:21:09;;;;;;;1.73;0.80;;;21.20;69.80;;;;;;5075027;28;20222;-56
2023/09/29 03:23:37;;;;;;;1.23;0.82;;;21.20;70.60;;;;;;5074968;28;20242;-62
2023/09/29 03:26:05;;;;;;;2.10;1.10;;;21.20;69.80;;;;;;5075424;28;20253;-61
2023/09/29 03:28:34;;;;;;;2.72;1.08;;;21.20;69.80;;;;;;5074587;28;20707;-60
2023/09/29 03:31:04;;;;;;;3.78;1.30;;;21.20;69.90;;;;;;5074617;28;20229;-59
2023/09/29 03:33:32;;;;;;;2.60;1.05;;;21.20;69.80;;;;;;5074210;28;20219;-61
2023/09/29 03:36:34;;;;;;;3.25;1.08;;;21.20;69.80;;;;;;5074258;28;20214;-60
2023/09/29 03:41:55;;;;;;;2.28;1.17;;;21.20;70.00;;;;;;5072237;28;20218;-62
2023/09/29 03:44:38;;;;;;;2.90;1.30;;;21.20;69.90;;;;;;5019772;28;20286;-63
2023/09/29 03:47:06;;;;;;;2.70;1.20;;;21.10;69.80;;;;;;5060547;28;20183;-60
2023/09/29 03:49:35;;;;;;;3.05;1.10;;;21.10;69.80;;;;;;5073950;28;20226;-59
2023/09/29 03:52:02;;;;;;;2.65;1.10;;;21.10;69.90;;;;;;5074397;28;20575;-58
2023/09/29 03:54:31;;;;;;;2.28;1.10;;;21.20;69.90;;;;;;5074377;28;20218;-60
2023/09/29 03:56:59;;;;;;;2.33;1.00;;;21.20;69.90;;;;;;5074493;28;20308;-58
2023/09/29 03:59:27;;;;;;;2.58;0.93;;;21.10;69.80;;;;;;5074421;28;20240;-58
2023/09/29 04:01:54;;;;;;;7.78;1.23;;;21.10;69.80;;;;;;5074498;28;20210;-61
2023/09/29 04:04:32;;;;;;;3.08;1.10;;;21.10;69.80;;;;;;5074287;28;20191;-61
2023/09/29 04:06:59;;;;;;;2.42;1.15;;;21.10;69.80;;;;;;5002585;28;20192;-58
2023/09/29 04:09:30;;;;;;;3.53;1.50;;;21.10;69.80;;;;;;5061861;28;20187;-63
2023/09/29 04:11:58;;;;;;;2.85;1.20;;;21.10;69.70;;;;;;5074141;28;20183;-58
2023/09/29 04:14:25;;;;;;;3.35;1.20;;;21.10;69.80;;;;;;5074280;28;20211;-62
2023/09/29 04:16:53;;;;;;;2.55;1.10;;;21.10;69.70;;;;;;5073813;28;20210;-61
2023/09/29 04:19:20;;;;;;;4.93;1.27;;;21.10;69.70;;;;;;5073844;28;20236;-63
2023/09/29 04:21:48;;;;;;;4.03;1.65;;;21.10;69.70;;;;;;5073888;28;20218;-63
2023/09/29 04:24:16;;;;;;;2.25;1.10;;;21.10;69.70;;;;;;5073439;28;20187;-60
2023/09/29 04:26:45;;;;;;;4.60;1.35;;;21.10;69.70;;;;;;5072718;28;20221;-61
2023/09/29 04:35:24;;;;;;;2.58;1.00;;;21.10;69.70;;;;;;5011414;28;20224;-63
2023/09/29 04:37:52;;;;;;;3.50;1.00;;;21.10;69.70;;;;;;5011272;28;20196;-62
2023/09/29 04:40:20;;;;;;;3.58;1.42;;;21.10;70.40;;;;;;5011450;28;20225;-63
2023/09/29 04:42:49;;;;;;;3.53;1.33;;;21.10;70.30;;;;;;5011360;28;20229;-64
2023/09/29 04:45:17;;;;;;;4.45;1.35;;;21.10;69.60;;;;;;5011049;28;20275;-64
2023/09/29 04:47:44;;;;;;;4.05;1.15;;;21.10;69.60;;;;;;5010997;28;20644;-62
2023/09/29 04:50:14;;;;;;;4.72;1.42;;;21.00;69.50;;;;;;5011213;28;20221;-64
2023/09/29 04:52:41;;;;;;;3.33;1.42;;;21.10;69.50;;;;;;5010490;28;20355;-62
2023/09/29 04:55:10;;;;;;;3.25;1.48;;;21.10;69.50;;;;;;5010867;28;20239;-63
2023/09/29 04:57:39;;;;;;;4.05;1.48;;;21.10;69.40;;;;;;5010992;28;20194;-64
2023/09/29 05:00:10;;;;;;;3.33;1.33;;;21.00;69.40;;;;;;5010788;28;20225;-64
2023/09/29 05:02:38;;;;;;;4.03;1.40;;;21.00;69.30;;;;;;5011007;28;20193;-61
2023/09/29 05:05:06;;;;;;;3.90;1.40;;;21.10;69.40;;;;;;5010762;28;20221;-64
2023/09/29 05:07:34;;;;;;;3.97;1.52;;;21.10;69.40;;;;;;5010445;28;20186;-63
2023/09/29 05:10:02;;;;;;;3.17;1.20;;;21.00;69.30;;;;;;5062612;28;20218;-64
2023/09/29 05:12:30;;;;;;;5.30;2.25;;;21.00;69.30;;;;;;5072674;28;20269;-63
2023/09/29 05:14:57;;;;;;;4.00;1.30;;;21.00;69.30;;;;;;5072135;28;20217;-62
2023/09/29 05:17:26;;;;;;;3.50;1.60;;;21.00;69.30;;;;;;5072728;28;20190;-63
2023/09/29 05:19:54;;;;;;;4.28;1.42;;;21.10;69.30;;;;;;5072795;28;20187;-62
2023/09/29 05:22:21;;;;;;;3.03;1.40;;;21.00;69.30;;;;;;5072455;28;20198;-64
2023/09/29 05:24:53;;;;;;;5.22;1.48;;;21.00;69.20;;;;;;5072672;28;20195;-64
2023/09/29 05:27:20;;;;;;;3.63;1.25;;;21.00;69.20;;;;;;5072272;28;20198;-62
2023/09/29 05:29:48;;;;;;;5.85;1.67;;;21.00;69.20;;;;;;5072541;28;20213;-63
2023/09/29 05:32:16;;;;;;;4.32;1.73;;;21.00;69.20;;;;;;5072315;28;20187;-64
2023/09/29 05:34:45;;;;;;;3.03;1.50;;;21.00;69.00;;;;;;5072166;28;20206;-64
2023/09/29 05:37:12;;;;;;;5.05;1.73;;;21.00;69.00;;;;;;5058601;28;20192;-64
2023/09/29 05:39:40;;;;;;;3.58;1.50;;;21.00;69.00;;;;;;5052630;28;20180;-61
2023/09/29 05:42:10;;;;;;;2.53;1.70;;;21.00;69.00;;;;;;5052460;28;20282;-63
2023/09/29 05:44:39;;;;;;;4.95;1.60;;;21.00;69.00;;;;;;5052516;28;20250;-59
2023/09/29 05:47:10;;;;;;;3.58;1.50;;;21.00;69.00;;;;;;5052477;28;20223;-61
2023/09/29 05:49:40;;;;;;;4.20;1.40;;;21.00;69.00;;;;;;5071949;28;20599;-62
2023/09/29 05:52:09;;;;;;;4.75;1.63;;;21.00;68.90;;;;;;5071812;28;20280;-58
2023/09/29 05:54:39;;;;;;;4.32;1.30;;;21.00;68.90;;;;;;5072409;28;20215;-60
2023/09/29 05:57:07;;;;;;;6.22;1.60;;;21.00;68.90;;;;;;5072191;28;20246;-63
2023/09/29 05:59:35;;;;;;;7.43;2.40;;;21.00;68.90;;;;;;5071973;28;20187;-63
2023/09/29 06:02:03;;;;;;;5.93;1.48;;;20.90;68.80;;;;;;5072386;28;20228;-63
2023/09/29 06:04:30;;;;;;;7.85;1.60;;;21.00;68.90;;;;;;5072132;28;20617;-57
2023/09/29 06:06:57;;;;;;;7.95;1.80;;;20.90;68.80;;;;;;5072160;28;20229;-61
2023/09/29 06:09:27;;;;;;;3.67;1.35;;;21.00;68.80;;;;;;5071948;28;20218;-59
2023/09/29 06:11:57;;;;;;;8.57;1.88;;;21.00;68.80;;;;;;5071942;28;20268;-59
2023/09/29 06:14:24;;;;;;;5.47;1.58;;;21.00;68.80;;;;;;5070835;28;20217;-57
2023/09/29 06:16:52;;;;;;;5.35;1.85;;;21.00;68.80;;;;;;5071259;28;20210;-60
2023/09/29 06:19:21;;;;;;;6.07;1.70;;;21.00;69.60;;;;;;5071084;28;20728;-59
2023/09/29 06:21:49;;;;;;;4.85;1.50;;;21.00;68.70;;;;;;5067876;28;20314;-60
2023/09/29 06:24:19;;;;;;;4.15;1.60;;;21.00;68.70;;;;;;5070987;28;20198;-58
2023/09/29 06:26:59;;;;;;;3.92;1.48;;;21.00;68.60;;;;;;5070794;28;20225;-60
2023/09/29 06:30:12;;;;;;;5.50;1.55;;;21.00;68.50;;;;;;5056606;28;20965;-59
2023/09/29 06:32:41;;;;;;;4.00;1.60;;;21.00;68.50;;;;;;5061328;28;20247;-60
2023/09/29 06:35:23;;;;;;;7.15;1.75;;;21.00;68.40;;;;;;5069063;28;20551;-60
2023/09/29 06:38:04;;;;;;;4.53;1.70;;;21.10;68.40;;;;;;5054106;28;20723;-60
2023/09/29 06:40:31;;;;;;;5.82;1.60;;;21.10;68.40;;;;;;5069974;28;20215;-59
2023/09/29 06:43:06;;;;;;;5.97;2.00;;;21.00;68.30;;;;;;5051472;28;20245;-61
2023/09/29 06:45:35;;;;;;;3.22;1.52;;;21.10;68.30;;;;;;5065755;28;20225;-58
2023/09/29 06:51:37;;;;;;;4.95;1.80;;;21.10;68.10;;;;;;4941338;29;20224;-58
2023/09/29 06:54:05;;;;;;;6.70;1.52;;;21.10;68.10;;;;;;4935391;29;20220;-59
2023/09/29 06:56:34;;;;;;;4.30;1.90;;;21.10;68.00;;;;;;4935159;29;20220;-58
2023/09/29 06:59:08;;;;;;;6.07;2.00;;;21.10;68.00;;;;;;4935098;29;20207;-60
2023/09/29 07:04:24;;;;;;;4.88;1.75;;;21.10;68.00;;;;;;4926664;29;20213;-59
2023/09/29 07:09:39;;;;;;;13.57;2.13;;;21.10;67.80;;;;;;4931490;29;20279;-61
2023/09/29 07:12:16;;;;;;;5.43;2.03;;;21.10;67.80;;;;;;4933266;29;20223;-60
2023/09/29 07:14:53;;;;;;;6.97;2.08;;;21.10;67.80;;;;;;4905506;29;20243;-59
2023/09/29 07:17:34;;;;;;;5.68;1.77;;;21.10;67.70;;;;;;4942658;29;20668;-59
2023/09/29 07:20:04;;;;;;;6.13;1.88;;;21.20;67.70;;;;;;4946372;29;20242;-60
2023/09/29 07:22:38;;;;;;;7.80;2.00;;;21.20;67.50;;;;;;4907382;29;20287;-60
2023/09/29 07:25:11;;;;;;;9.32;2.22;;;21.20;67.50;;;;;;4933757;29;20204;-59
2023/09/29 07:27:40;;;;;;;7.18;2.30;;;21.20;67.30;;;;;;4932303;29;20509;-63
2023/09/29 07:33:35;;;;;;;7.72;2.28;;;21.20;67.20;;;;;;4916354;29;20699;-61
2023/09/29 07:36:29;;;;;;;;;;;;;;;;;;;;;
2023/09/29 07:38:57;;;;;;;7.72;2.42;;;21.20;67.20;;;;;;5047091;28;20203;-59
2023/09/29 07:41:27;;;;;;;5.05;2.00;;;21.30;67.30;;;;;;5001782;28;20290;-59
2023/09/29 07:44:01;;;;;;;9.15;2.22;;;21.30;67.30;;;;;;5007786;28;20288;-58
2023/09/29 07:46:33;;;;;;;7.45;2.50;;;21.30;67.30;;;;;;4926768;28;20654;-61
2023/09/29 07:49:07;;;;;;;7.70;2.67;;;21.30;67.30;;;;;;4918290;28;20238;-57
2023/09/29 07:51:38;;;;;;;6.80;2.38;;;21.30;66.90;;;;;;4971992;28;20226;-60
2023/09/29 07:54:09;;;;;;;7.88;2.50;;;21.30;67.00;;;;;;4955677;28;20258;-59
2023/09/29 07:56:38;;;;;;;6.20;2.17;;;21.30;66.80;;;;;;4969498;28;20222;-60
2023/09/29 07:59:10;;;;;;;8.18;2.55;;;21.30;66.80;;;;;;4971257;28;20207;-59
2023/09/29 08:01:43;;;;;;;6.75;2.00;;;21.30;66.80;;;;;;4969151;28;20214;-60
2023/09/29 08:04:11;;;;;;;5.43;2.05;;;21.30;66.70;;;;;;4965448;28;20206;-59
2023/09/29 08:06:39;;;;;;;9.70;2.90;;;21.30;66.70;;;;;;4957372;28;20314;-61
2023/09/29 08:09:08;;;;;;;5.25;2.03;;;21.30;66.70;;;;;;4971350;28;20201;-63
2023/09/29 08:11:55;;;;;;;6.97;2.38;;;21.30;66.60;;;;;;5004620;28;20286;-61
2023/09/29 08:14:24;;;;;;;5.05;2.30;;;21.30;66.60;;;;;;4961196;28;20220;-57
2023/09/29 08:17:01;;;;;;;8.30;2.83;;;21.40;66.50;;;;;;4996528;28;20312;-57
2023/09/29 08:19:29;;;;;;;6.55;2.25;;;21.40;66.40;;;;;;5050040;28;20183;-59
2023/09/29 08:22:01;;;;;;;5.95;2.30;;;21.40;66.30;;;;;;5034891;28;20230;-58
2023/09/29 08:24:30;;;;;;;6.45;2.40;;;21.40;66.40;;;;;;5001546;28;20200;-59
2023/09/29 08:27:02;;;;;;;6.15;2.55;;;21.40;66.40;;;;;;4998590;28;20217;-57
2023/09/29 08:46:11;;;;;;;9.02;2.70;;;21.40;65.80;;;;;;4989326;28;20224;-60
2023/09/29 08:48:57;;;;;;;6.45;2.60;;;21.40;65.80;;;;;;5028005;28;20266;-63
2023/09/29 09:02:12;;;;;;;10.07;2.95;;;21.50;66.00;;;;;;4911103;28;20224;-63
2023/09/29 09:48:20;;;;;;;9.18;3.28;;;21.60;65.00;;;;;;4869937;29;20277;-61
2023/09/29 09:58:47;;;;;;;9.73;3.22;;;21.60;64.80;;;;;;4838393;29;20219;-61
2023/09/29 10:01:56;;;;;;;;;;;;;;;;;;;;;
2023/09/29 10:04:31;;;;;;;11.52;3.28;;;21.60;64.80;;;;;;4907071;29;20236;-61
2023/09/29 12:32:00;;;;;;;7.68;2.65;;;21.60;61.90;;;;;;4863404;29;20337;-58
2023/09/29 14:59:50;;;;;;;8.77;2.85;;;21.50;60.40;;;;;;4842824;29;20209;-61
2023/09/29 15:02:19;;;;;;;5.65;2.08;;;21.40;60.30;;;;;;4885795;29;20270;-59
2023/09/29 15:48:38;;;;;;;7.35;2.35;;;21.70;60.50;;;;;;4796139;29;20317;-60
2023/09/29 15:54:32;;;;;;;11.18;2.00;;;21.70;60.50;;;;;;4772387;30;20317;-53
2023/09/29 16:08:19;;;;;;;7.93;2.05;;;21.70;60.80;;;;;;4833629;29;20266;-61
2023/09/29 16:26:55;;;;;;;5.75;1.75;;;21.50;59.90;;;;;;4811526;29;20222;-59
2023/09/29 16:29:22;;;;;;;5.80;2.00;;;21.50;60.10;;;;;;4847664;29;20204;-60
2023/09/29 16:31:49;;;;;;;4.88;1.90;;;21.40;59.90;;;;;;4863460;29;20212;-61
2023/09/29 16:34:22;;;;;;;7.07;2.08;;;21.40;60.50;;;;;;4899379;29;20197;-61
2023/09/29 16:37:10;;;;;;;4.95;2.05;;;21.40;60.60;;;;;;4932814;29;20235;-61
2023/09/29 16:39:44;;;;;;;9.65;2.28;;;21.40;60.60;;;;;;4927839;29;20201;-60
2023/09/29 16:45:02;;;;;;;6.18;2.10;;;21.40;60.60;;;;;;4944944;28;20669;-59
2023/09/29 17:43:24;;;;;;;5.88;1.98;;;21.10;60.40;;;;;;4876526;29;20221;-63
2023/09/29 18:46:03;;;;;;;6.18;1.80;;;21.00;60.40;;;;;;4876648;29;20190;-60
2023/09/29 19:06:38;;;;;;;5.80;2.00;;;20.90;60.20;;;;;;4806060;29;20192;-62
2023/09/29 19:09:07;;;;;;;6.35;1.77;;;20.90;60.20;;;;;;4806199;29;20234;-62
2023/09/29 19:11:36;;;;;;;6.07;1.90;;;20.90;60.20;;;;;;4807562;29;20301;-62
2023/09/29 19:14:16;;;;;;;;;;;;;;;;;;;;;
2023/09/29 20:12:29;;;;;;;9.93;2.15;;;20.70;59.80;;;;;;4786517;30;20285;-62
2023/09/29 22:21:26;;;;;;;6.03;1.80;;;20.60;59.10;;;;;;4912300;29;20184;-62
2023/09/29 23:12:48;;;;;;;7.07;1.80;;;20.50;58.90;;;;;;4894430;29;20704;-62
2023/09/29 23:16:05;;;;;;;;;;;;;;;;;;;;;
2023/09/29 23:32:36;;;;;;;;;;;;;;;;;;;;;
2023/09/29 23:35:08;;;;;;;4.43;1.65;;;20.40;58.70;;;;;;4938928;29;20214;-63
2023/09/29 23:37:41;;;;;;;4.40;1.48;;;20.40;58.70;;;;;;4953726;29;20250;-63
2023/09/29 23:58:04;;;;;;;7.35;2.20;;;20.40;58.60;;;;;;4878749;29;20303;-63
